»·PEaware :: DCM2499 KIFP-KSNA

DCM2499 :: KIFP-KSNA

FLIGHT INFORMATION

Flight Status: Arrived
Operator: Unknown
More flights by this operator :: More flights under this callsign
Pilot: Alec D. (17934)
Aircraft: GATES LEARJET LEARJET 24
(LJ24)
More flights by this aircraft type
Origin: KIFP Laughlin/Bullhead Intl
United States
Destination: KSNA John Wayne-Orange Co
United States
More flights between these airports :: More routes between these airports
Route: +EED J6 HEC KAYOH7
File this flight plan on PilotEdge
Remarks:
Altitude:
(Current/Filed)
28,000ft
Speed:
(Current/Filed)
440kts
Departed: 04-Sep-18 11:43 AM
Arrived: 04-Sep-18 12:33 PM
Distance/Time
Traveled:
187nm/0:50
Distance/Time
To Go:
Arrived

Flight Plot

Page will automatically refresh every two minutes.

Flight plan parsing failed; only flown route is shown


Map Options




Map Legend


Flown Route
Filed Route
Departure Airport
Arrival Airport
Navaid (VOR, NDB)
Fix

Horizontal Profiles

Position Reports

Time Latitude Longitude Heading Altitude Ground
Speed
04-Sep-18 11:23 35.164048 -114.556501 85 698ft 0kts
04-Sep-18 11:24 35.164048 -114.556501 85 698ft 0kts
04-Sep-18 11:25 35.164048 -114.556501 85 698ft 0kts
04-Sep-18 11:26 35.164048 -114.556501 85 698ft 0kts
04-Sep-18 11:27 35.164048 -114.556501 85 698ft 0kts
04-Sep-18 11:28 35.164048 -114.556501 85 698ft 0kts
04-Sep-18 11:29 35.164048 -114.556501 85 698ft 0kts
04-Sep-18 11:30 35.164048 -114.556501 85 698ft 0kts
04-Sep-18 11:31 35.164048 -114.556501 85 698ft 0kts
04-Sep-18 11:32 35.164048 -114.556501 85 698ft 0kts
04-Sep-18 11:33 35.164048 -114.556501 85 698ft 0kts
04-Sep-18 11:34 35.164048 -114.556501 85 698ft 0kts
04-Sep-18 11:35 35.164048 -114.556501 85 698ft 0kts
04-Sep-18 11:36 35.164048 -114.556501 85 698ft 0kts
04-Sep-18 11:37 35.164048 -114.556501 85 698ft 0kts
04-Sep-18 11:38 35.162829 -114.557179 178 698ft 10kts
04-Sep-18 11:39 35.159607 -114.558514 176 698ft 19kts
04-Sep-18 11:40 35.154306 -114.558121 176 698ft 21kts
04-Sep-18 11:41 35.148823 -114.557716 177 698ft 14kts
04-Sep-18 11:42 35.147364 -114.557950 266 698ft 0kts
04-Sep-18 11:43 35.147364 -114.557956 266 698ft 0kts
04-Sep-18 11:44 35.151164 -114.559083 356 698ft 75kts
04-Sep-18 11:45 35.193517 -114.560810 9 2719ft 204kts
04-Sep-18 11:46 35.207755 -114.503980 136 5044ft 230kts
04-Sep-18 11:47 35.146252 -114.488092 177 6001ft 229kts
04-Sep-18 11:48 35.078164 -114.488516 183 7864ft 273kts
04-Sep-18 11:49 35.032197 -114.558594 250 10909ft 293kts
04-Sep-18 11:50 35.006313 -114.661464 253 13333ft 339kts
04-Sep-18 11:51 34.982194 -114.779444 258 16015ft 367kts
04-Sep-18 11:52 34.968131 -114.900853 264 19270ft 360kts
04-Sep-18 11:53 34.960826 -115.022925 266 21822ft 362kts
04-Sep-18 11:54 34.951991 -115.147034 264 24145ft 372kts
04-Sep-18 11:55 34.936689 -115.273821 261 26292ft 386kts
04-Sep-18 11:56 34.918136 -115.403912 261 28004ft 403kts
04-Sep-18 11:57 34.902155 -115.538750 264 28013ft 401kts
04-Sep-18 11:58 34.888582 -115.673717 264 28026ft 400kts
04-Sep-18 11:59 34.872975 -115.808049 262 28039ft 403kts
04-Sep-18 12:00 34.856711 -115.943413 263 28061ft 405kts
04-Sep-18 12:01 34.841259 -116.080174 263 28067ft 408kts
04-Sep-18 12:02 34.825393 -116.216900 264 28075ft 408kts
04-Sep-18 12:03 34.809662 -116.352448 262 27232ft 393kts
04-Sep-18 12:04 34.774231 -116.474728 230 25380ft 396kts
04-Sep-18 12:05 34.697878 -116.570509 230 24093ft 388kts
04-Sep-18 12:07 34.630247 -116.670388 235 24061ft 375kts
04-Sep-18 12:08 34.559394 -116.762608 224 22106ft 370kts
04-Sep-18 12:09 34.486515 -116.850821 228 19385ft 373kts
04-Sep-18 12:10 34.416195 -116.941789 227 16487ft 363kts
04-Sep-18 12:11 34.344076 -117.024781 217 13805ft 351kts
04-Sep-18 12:12 34.272095 -117.094662 218 13165ft 310kts
04-Sep-18 12:13 34.193424 -117.125821 180 13109ft 303kts
04-Sep-18 12:14 34.106914 -117.133226 187 13062ft 320kts
04-Sep-18 12:15 34.020422 -117.150049 185 13034ft 305kts
04-Sep-18 12:16 33.937533 -117.161507 184 11185ft 269kts
04-Sep-18 12:17 33.865971 -117.172087 184 11018ft 257kts
04-Sep-18 12:18 33.795640 -117.185304 209 11014ft 258kts
04-Sep-18 12:19 33.775789 -117.265579 272 9747ft 262kts
04-Sep-18 12:20 33.778539 -117.351621 268 8145ft 249kts
04-Sep-18 12:21 33.779923 -117.432029 270 8004ft 235kts
04-Sep-18 12:22 33.781051 -117.511547 271 7992ft 240kts
04-Sep-18 12:23 33.810424 -117.584376 303 6162ft 239kts
04-Sep-18 12:24 33.845386 -117.650238 303 5993ft 231kts
04-Sep-18 12:25 33.879063 -117.713740 303 5996ft 226kts
04-Sep-18 12:26 33.914373 -117.779860 307 5183ft 229kts
04-Sep-18 12:27 33.954420 -117.764499 103 3490ft 201kts
04-Sep-18 12:28 33.907416 -117.747098 179 2999ft 185kts
04-Sep-18 12:29 33.857290 -117.751670 198 3014ft 180kts
04-Sep-18 12:30 33.815752 -117.778616 211 2958ft 159kts
04-Sep-18 12:31 33.778312 -117.803707 208 2224ft 149kts
04-Sep-18 12:32 33.742601 -117.826285 209 1431ft 139kts
04-Sep-18 12:33 33.708277 -117.848297 208 662ft 136kts
04-Sep-18 12:34 33.675597 -117.868835 211 59ft 86kts
04-Sep-18 12:35 33.669332 -117.872539 138 59ft 8kts
04-Sep-18 12:36 33.669135 -117.872168 122 59ft 0kts
04-Sep-18 12:37 33.668385 -117.871917 219 59ft 11kts
04-Sep-18 12:38 33.666717 -117.872336 33 59ft 0kts
04-Sep-18 12:39 33.666717 -117.872335 33 59ft 0kts
04-Sep-18 12:40 33.666717 -117.872335 33 59ft 0kts
04-Sep-18 12:41 33.666717 -117.872335 33 59ft 0kts
04-Sep-18 12:42 33.666717 -117.872335 33 59ft 0kts
04-Sep-18 12:43 33.666717 -117.872335 33 59ft 0kts
04-Sep-18 12:44 33.666717 -117.872335 33 59ft 0kts
04-Sep-18 12:45 33.666717 -117.872335 33 59ft 0kts
04-Sep-18 12:46 33.666717 -117.872335 33 59ft 0kts
04-Sep-18 12:47 33.666717 -117.872335 33 59ft 0kts
04-Sep-18 12:48 33.666717 -117.872335 33 59ft 0kts
04-Sep-18 12:49 33.666717 -117.872335 33 59ft 0kts

Navigation Log

Ident Type
Flight plan parsing failed, navigation log unavailable